CheckWX is a tool to help pilots better visualize weather data.  It is not intended as a substitute for an official pre-flight weather briefing.

03:49:56 UTC

KFLG TAF
Flagstaff Pulliam Airport
Flagstaff, Arizona, USA
KFLG 162320Z 1700/1724 22010G20KT P6SM SCT200 FM170200 VRB05KT P6SM FEW200

Feb-17@
00:00 UTC

Feb-17 @ 00:00 UTC

Feb-17@
02:00 UTC

Feb-17 @ 02:00 UTC

KFLG 162320Z 1700/1724 22010G20KT P6SM SCT200

Expired

Wind
  • 220° at 10 KTS
  • {Gusting to 20 KTS
Cloud Levels
  • Scattered at 20,000' AGL

Feb-17@
02:00 UTC

Feb-17 @ 02:00 UTC

Feb-18@
00:00 UTC

Feb-18 @ 00:00 UTC

FM170200 VRB05KT P6SM FEW200

From

From Standard forecast or significant change

Wind
  • Variable at 5 KTS
Cloud Levels
  • Few at 20,000' AGL